Time;durP1;ratioP1;P1;durP2;ratioP2;P2;SDS_P1;SDS_P2;PMS_P1;PMS_P2;Temp;Humidity;BMP_temperature;BMP_pressure;BME280_temperature;BME280_humidity;BME280_pressure;Samples;Min_cycle;Max_cycle;Signal;HPM_P1;HPM_P2
2023/09/23 00:01:04;;;;;;;0.63;0.60;;;13.30;99.90;;;;;;6207865;23;20194;-88
2023/09/23 00:03:33;;;;;;;0.80;0.37;;;13.30;99.90;;;;;;6185777;23;20217;-87
2023/09/23 00:06:00;;;;;;;0.37;0.37;;;13.30;99.90;;;;;;6212215;23;20194;-88
2023/09/23 00:08:26;;;;;;;0.30;0.30;;;13.30;99.90;;;;;;6163123;23;20984;-88
2023/09/23 00:10:53;;;;;;;0.50;0.50;;;13.30;99.90;;;;;;6238609;23;20169;-88
2023/09/23 00:13:20;;;;;;;0.70;0.70;;;13.30;99.90;;;;;;6162990;23;20198;-87
2023/09/23 00:15:46;;;;;;;0.33;0.33;;;13.30;99.90;;;;;;6213506;23;20206;-87
2023/09/23 00:18:17;;;;;;;0.90;0.90;;;13.30;99.90;;;;;;6187303;23;20197;-87
2023/09/23 00:20:46;;;;;;;0.40;0.40;;;13.30;99.90;;;;;;6188783;23;20264;-87
2023/09/23 00:23:13;;;;;;;0.97;0.97;;;13.30;99.90;;;;;;6162952;23;20170;-87
2023/09/23 00:25:39;;;;;;;0.87;0.67;;;13.30;99.90;;;;;;6163487;23;20173;-86
2023/09/23 00:28:11;;;;;;;0.30;0.30;;;13.20;99.90;;;;;;6162352;23;20210;-87
2023/09/23 00:30:39;;;;;;;0.90;0.80;;;13.30;99.90;;;;;;6164434;23;20377;-87
2023/09/23 00:33:07;;;;;;;0.50;0.50;;;13.30;99.90;;;;;;6187131;23;20289;-87
2023/09/23 00:35:36;;;;;;;0.27;0.27;;;13.30;99.90;;;;;;6187200;23;20217;-86
2023/09/23 00:38:04;;;;;;;0.60;0.50;;;13.20;99.90;;;;;;6187631;23;20600;-87
2023/09/23 00:40:32;;;;;;;0.80;0.60;;;13.20;99.90;;;;;;6212788;23;20607;-87
2023/09/23 00:43:05;;;;;;;0.77;0.50;;;13.10;99.90;;;;;;6162946;23;20198;-87
2023/09/23 00:45:33;;;;;;;0.83;0.60;;;13.20;99.90;;;;;;6211509;23;20193;-87
2023/09/23 00:47:59;;;;;;;0.63;0.63;;;13.20;99.90;;;;;;6187342;23;20255;-87
2023/09/23 00:50:26;;;;;;;0.63;0.63;;;13.20;99.90;;;;;;6212605;23;20213;-87
2023/09/23 00:52:53;;;;;;;0.60;0.60;;;13.10;99.90;;;;;;6165040;23;20192;-87
2023/09/23 00:55:19;;;;;;;0.53;0.47;;;13.10;99.90;;;;;;6163987;23;20256;-87
2023/09/23 00:57:47;;;;;;;1.20;1.10;;;13.10;99.90;;;;;;6211747;23;20540;-87
2023/09/23 01:00:13;;;;;;;0.80;0.80;;;13.00;99.90;;;;;;6160202;23;20550;-88
2023/09/23 01:02:40;;;;;;;0.40;0.40;;;13.00;99.90;;;;;;6209376;23;20189;-87
2023/09/23 01:05:07;;;;;;;0.50;0.50;;;13.00;99.90;;;;;;6188915;23;20158;-87
2023/09/23 01:07:33;;;;;;;1.10;0.80;;;13.00;99.90;;;;;;6165978;23;20154;-87
2023/09/23 01:10:00;;;;;;;0.70;0.70;;;13.00;99.90;;;;;;6163791;23;20197;-87
2023/09/23 01:12:26;;;;;;;0.80;0.77;;;12.90;99.90;;;;;;6163923;23;20206;-88
2023/09/23 01:14:52;;;;;;;2.63;1.17;;;12.90;99.90;;;;;;6164301;23;20723;-88
2023/09/23 01:17:18;;;;;;;1.90;1.03;;;12.90;99.90;;;;;;6238850;23;20230;-88
2023/09/23 01:19:43;;;;;;;0.77;0.60;;;12.90;99.90;;;;;;6214318;23;20162;-87
2023/09/23 01:22:09;;;;;;;0.90;0.77;;;12.90;99.90;;;;;;6188632;23;20197;-87
2023/09/23 01:24:35;;;;;;;7.07;1.50;;;12.80;99.90;;;;;;6189101;23;20194;-87
2023/09/23 01:27:03;;;;;;;1.00;0.93;;;12.80;99.90;;;;;;6189268;23;20277;-87
2023/09/23 01:29:29;;;;;;;1.00;0.80;;;12.80;99.90;;;;;;6214210;23;20293;-86
2023/09/23 01:32:16;;;;;;;1.60;1.23;;;12.80;99.90;;;;;;6189404;23;20213;-87
2023/09/23 01:34:42;;;;;;;1.80;1.20;;;12.80;99.90;;;;;;6239109;23;20608;-87
2023/09/23 01:37:09;;;;;;;1.23;1.03;;;12.70;99.90;;;;;;6214111;23;20201;-87
2023/09/23 01:39:35;;;;;;;1.00;0.90;;;12.80;99.90;;;;;;6165076;23;20236;-88
2023/09/23 01:42:01;;;;;;;5.73;1.40;;;12.70;99.90;;;;;;6189152;23;20202;-88
2023/09/23 01:44:26;;;;;;;1.87;1.57;;;12.70;99.90;;;;;;6188706;23;20197;-87
2023/09/23 01:46:52;;;;;;;1.77;1.57;;;12.70;99.90;;;;;;6165071;23;20162;-87
2023/09/23 01:49:18;;;;;;;4.70;1.83;;;12.60;99.90;;;;;;6164154;23;20212;-87
2023/09/23 01:51:44;;;;;;;2.33;1.73;;;12.60;99.90;;;;;;6163937;23;20202;-88
2023/09/23 01:54:16;;;;;;;2.50;1.87;;;12.60;99.90;;;;;;6164317;23;20224;-87
2023/09/23 01:56:44;;;;;;;1.20;1.10;;;12.50;99.90;;;;;;6189743;23;20196;-87
2023/09/23 01:59:12;;;;;;;3.10;1.70;;;12.50;99.90;;;;;;6185008;23;20194;-88
2023/09/23 02:01:41;;;;;;;4.47;1.63;;;12.50;99.90;;;;;;6185214;23;20166;-87
2023/09/23 02:04:11;;;;;;;2.03;1.33;;;12.50;99.90;;;;;;6189951;23;20256;-87
2023/09/23 02:06:42;;;;;;;5.43;2.60;;;12.50;99.90;;;;;;6189462;23;20205;-87
2023/09/23 02:09:09;;;;;;;2.03;1.80;;;12.50;99.90;;;;;;6189684;23;20296;-88
2023/09/23 02:11:39;;;;;;;3.97;1.97;;;12.50;99.90;;;;;;6188706;23;20670;-87
2023/09/23 02:14:05;;;;;;;1.57;1.47;;;12.50;99.90;;;;;;6188374;23;20209;-87
2023/09/23 02:16:31;;;;;;;1.43;1.30;;;12.50;99.90;;;;;;6163842;23;20155;-88
2023/09/23 02:18:57;;;;;;;2.73;1.87;;;12.50;99.90;;;;;;6188245;23;20308;-88
2023/09/23 02:21:23;;;;;;;5.80;1.93;;;12.50;99.90;;;;;;6164121;23;20835;-87
2023/09/23 02:23:49;;;;;;;3.03;2.40;;;12.60;99.90;;;;;;6188846;23;20534;-87
2023/09/23 02:26:15;;;;;;;3.57;2.50;;;12.60;99.90;;;;;;6164176;23;20155;-87
2023/09/23 02:28:41;;;;;;;3.10;2.70;;;12.60;99.90;;;;;;6188984;23;20237;-87
2023/09/23 02:31:06;;;;;;;2.27;2.10;;;12.70;99.90;;;;;;6163016;23;20198;-87
2023/09/23 02:33:32;;;;;;;1.90;1.77;;;12.60;99.90;;;;;;6187751;23;20206;-88
2023/09/23 02:35:59;;;;;;;3.07;2.27;;;12.70;99.90;;;;;;6163526;23;20193;-87
2023/09/23 02:38:25;;;;;;;4.27;2.07;;;12.70;99.90;;;;;;6164320;23;20185;-88
2023/09/23 02:40:52;;;;;;;2.40;2.20;;;12.70;99.90;;;;;;6164466;23;20216;-88
2023/09/23 02:43:19;;;;;;;3.67;2.03;;;12.80;99.90;;;;;;6163767;23;20209;-88
2023/09/23 02:45:47;;;;;;;3.93;2.50;;;12.80;99.90;;;;;;6187980;23;20202;-87
2023/09/23 02:48:14;;;;;;;2.77;2.47;;;12.80;99.90;;;;;;6187652;23;20260;-87
2023/09/23 02:50:40;;;;;;;3.10;1.97;;;12.80;99.90;;;;;;6187991;23;20248;-87
2023/09/23 02:53:07;;;;;;;3.53;2.07;;;12.80;99.90;;;;;;6187956;23;20654;-87
2023/09/23 02:55:33;;;;;;;2.43;2.23;;;12.90;99.90;;;;;;6213824;23;20471;-87
2023/09/23 02:57:59;;;;;;;1.83;1.73;;;12.90;99.90;;;;;;6185505;23;20232;-88
2023/09/23 03:00:29;;;;;;;2.27;1.17;;;12.90;99.90;;;;;;6183742;23;20631;-88
2023/09/23 03:03:02;;;;;;;0.87;0.87;;;12.90;99.90;;;;;;6162540;23;20198;-87
2023/09/23 03:05:31;;;;;;;0.73;0.73;;;12.90;99.90;;;;;;6189080;23;20194;-88
2023/09/23 03:08:01;;;;;;;0.37;0.37;;;12.90;99.90;;;;;;6165432;23;20170;-89
2023/09/23 03:10:32;;;;;;;0.57;0.50;;;12.60;99.90;;;;;;6188364;23;20188;-89
2023/09/23 03:13:06;;;;;;;0.50;0.50;;;12.60;99.90;;;;;;6188337;23;20202;-89
2023/09/23 03:15:52;;;;;;;0.20;0.20;;;12.60;99.90;;;;;;6189429;23;20200;-88
2023/09/23 03:18:33;;;;;;;0.50;0.50;;;12.60;99.90;;;;;;6212685;23;20202;-89
2023/09/23 03:21:09;;;;;;;1.80;0.47;;;12.60;99.90;;;;;;6191223;23;20204;-88
2023/09/23 03:23:37;;;;;;;0.30;0.30;;;12.60;99.90;;;;;;6164516;23;20271;-88
2023/09/23 03:26:04;;;;;;;0.30;0.30;;;12.70;99.90;;;;;;6163995;23;20872;-88
2023/09/23 03:28:30;;;;;;;1.33;0.30;;;12.70;99.90;;;;;;6188851;23;20158;-88
2023/09/23 03:31:00;;;;;;;0.50;0.40;;;12.70;99.90;;;;;;6187460;23;20231;-87
2023/09/23 03:33:27;;;;;;;0.60;0.60;;;12.70;99.90;;;;;;6213184;23;20197;-87
2023/09/23 03:35:53;;;;;;;1.10;0.97;;;12.80;99.90;;;;;;6212798;23;20189;-88
2023/09/23 03:38:20;;;;;;;9.43;1.27;;;12.80;99.90;;;;;;6187687;23;20272;-88
2023/09/23 03:40:53;;;;;;;0.40;0.40;;;12.90;99.90;;;;;;6188350;23;20158;-87
2023/09/23 03:43:19;;;;;;;0.30;0.30;;;12.90;99.90;;;;;;6212495;23;20507;-88
2023/09/23 03:45:45;;;;;;;0.47;0.43;;;12.90;99.90;;;;;;6187425;23;20194;-87
2023/09/23 03:48:11;;;;;;;0.40;0.27;;;12.90;99.90;;;;;;6162943;23;20198;-87
2023/09/23 03:50:37;;;;;;;4.40;0.63;;;12.90;99.90;;;;;;6187505;23;20707;-87
2023/09/23 03:53:02;;;;;;;0.23;0.23;;;12.80;99.90;;;;;;6163348;23;20186;-87
2023/09/23 03:55:29;;;;;;;0.67;0.40;;;12.70;99.90;;;;;;6188349;23;20158;-87
2023/09/23 03:57:56;;;;;;;2.00;0.67;;;12.70;99.90;;;;;;6185028;23;20202;-88
2023/09/23 04:00:26;;;;;;;1.60;0.60;;;12.60;99.90;;;;;;6207633;23;20585;-88
2023/09/23 04:02:52;;;;;;;0.60;0.60;;;12.60;99.90;;;;;;6160316;23;20536;-87
2023/09/23 04:05:19;;;;;;;0.93;0.90;;;12.50;99.90;;;;;;6187496;23;20252;-87
2023/09/23 04:07:50;;;;;;;0.97;0.97;;;12.50;99.90;;;;;;6163952;23;20170;-88
2023/09/23 04:10:23;;;;;;;0.70;0.70;;;12.50;99.90;;;;;;6187393;23;20205;-88
2023/09/23 04:12:55;;;;;;;0.73;0.63;;;12.40;99.90;;;;;;6212184;23;20210;-86
2023/09/23 04:15:22;;;;;;;0.97;0.83;;;12.40;99.90;;;;;;6187771;23;20197;-87
2023/09/23 04:17:48;;;;;;;1.10;1.10;;;12.40;99.90;;;;;;6162605;23;20194;-87
2023/09/23 04:20:17;;;;;;;3.73;2.00;;;12.30;99.90;;;;;;6187404;23;20216;-88
2023/09/23 04:22:46;;;;;;;1.73;1.60;;;12.30;99.90;;;;;;6188221;23;20196;-88
2023/09/23 04:25:14;;;;;;;2.27;2.07;;;12.30;99.90;;;;;;6211639;23;20227;-87
2023/09/23 04:27:40;;;;;;;3.07;2.47;;;12.30;99.90;;;;;;6187610;23;20213;-88
2023/09/23 04:30:11;;;;;;;1.97;1.87;;;12.30;99.90;;;;;;6212201;23;20206;-87
2023/09/23 04:32:41;;;;;;;1.80;1.70;;;12.30;99.90;;;;;;6212183;23;20670;-88
2023/09/23 04:35:08;;;;;;;10.37;2.23;;;12.30;99.90;;;;;;6187715;23;20174;-87
2023/09/23 04:37:37;;;;;;;2.63;2.43;;;12.30;99.90;;;;;;6187771;23;20166;-88
2023/09/23 04:40:10;;;;;;;1.93;1.77;;;12.30;99.90;;;;;;6162634;23;20198;-88
2023/09/23 04:42:37;;;;;;;2.30;1.90;;;12.20;99.90;;;;;;6212492;23;20205;-88
2023/09/23 04:45:03;;;;;;;2.83;2.53;;;12.20;99.90;;;;;;6187646;23;20198;-88
2023/09/23 04:47:30;;;;;;;3.10;2.90;;;12.20;99.90;;;;;;6187510;23;20713;-88
2023/09/23 04:49:57;;;;;;;3.73;1.83;;;12.00;99.90;;;;;;6188140;23;20158;-88
2023/09/23 04:52:23;;;;;;;4.47;1.90;;;11.90;99.90;;;;;;6163493;23;20534;-88
2023/09/23 04:54:53;;;;;;;2.50;2.23;;;11.70;99.90;;;;;;6187272;23;20194;-88
2023/09/23 04:57:19;;;;;;;2.67;2.17;;;11.60;99.90;;;;;;6211597;23;20280;-88
2023/09/23 04:59:45;;;;;;;2.70;2.00;;;11.60;99.90;;;;;;6207657;23;20243;-88
2023/09/23 05:02:14;;;;;;;2.80;2.47;;;11.60;99.90;;;;;;6185248;23;20463;-87
2023/09/23 05:04:40;;;;;;;1.70;1.60;;;11.60;99.90;;;;;;6189045;23;20162;-87
2023/09/23 05:07:06;;;;;;;3.70;2.13;;;11.60;99.90;;;;;;6162611;23;20216;-87
2023/09/23 05:09:32;;;;;;;4.23;2.50;;;11.60;99.90;;;;;;6186734;23;20654;-87
2023/09/23 05:11:58;;;;;;;3.73;3.03;;;11.70;99.90;;;;;;6162291;23;20260;-87
2023/09/23 05:14:26;;;;;;;3.47;2.40;;;11.70;99.90;;;;;;6187469;23;20198;-87
2023/09/23 05:16:52;;;;;;;3.57;3.27;;;11.70;99.90;;;;;;6188756;23;20205;-88
2023/09/23 05:19:23;;;;;;;3.10;2.83;;;11.80;99.90;;;;;;6186799;23;20635;-87
2023/09/23 05:21:50;;;;;;;3.00;2.70;;;11.80;99.90;;;;;;6188582;23;20198;-87
2023/09/23 05:24:16;;;;;;;3.50;3.07;;;11.80;99.90;;;;;;6163517;23;20987;-87
2023/09/23 05:26:43;;;;;;;3.80;3.20;;;11.90;99.90;;;;;;6237284;23;20248;-85
2023/09/23 05:29:09;;;;;;;4.20;3.00;;;12.00;99.90;;;;;;6188113;23;20516;-87
2023/09/23 05:31:36;;;;;;;4.03;3.63;;;12.00;99.90;;;;;;6160529;23;20186;-88
2023/09/23 05:34:03;;;;;;;5.33;3.70;;;12.10;99.90;;;;;;6207897;23;20220;-87
2023/09/23 05:36:30;;;;;;;7.80;4.23;;;12.20;99.90;;;;;;6186267;23;20244;-87
2023/09/23 05:38:56;;;;;;;4.10;3.70;;;12.20;99.90;;;;;;6164653;23;20256;-87
2023/09/23 05:41:24;;;;;;;3.83;3.00;;;12.30;99.90;;;;;;6164399;23;20190;-87
2023/09/23 05:43:52;;;;;;;6.60;4.10;;;12.30;99.90;;;;;;6190599;23;20194;-88
2023/09/23 05:46:21;;;;;;;5.23;4.33;;;12.50;99.90;;;;;;6214395;23;20535;-87
2023/09/23 05:48:49;;;;;;;4.77;4.00;;;12.70;99.90;;;;;;6189777;23;20655;-88
2023/09/23 05:51:15;;;;;;;6.40;3.80;;;12.80;99.90;;;;;;6189502;23;20201;-88
2023/09/23 05:53:42;;;;;;;5.33;3.63;;;12.90;99.90;;;;;;6164462;23;20190;-88
2023/09/23 05:56:08;;;;;;;8.10;3.93;;;13.00;99.90;;;;;;6189204;23;20185;-87
2023/09/23 05:58:34;;;;;;;3.90;3.53;;;13.10;99.90;;;;;;6236775;23;20202;-88
2023/09/23 06:01:00;;;;;;;4.53;3.40;;;13.20;99.90;;;;;;6209898;23;20685;-88
2023/09/23 06:03:26;;;;;;;5.53;3.33;;;13.40;99.90;;;;;;6163294;23;20205;-85
2023/09/23 06:05:51;;;;;;;7.50;4.23;;;13.40;99.90;;;;;;6188407;23;20220;-87
2023/09/23 06:08:17;;;;;;;7.17;4.50;;;13.60;99.90;;;;;;6188863;23;20199;-87
2023/09/23 06:10:43;;;;;;;4.43;3.90;;;13.80;99.90;;;;;;6164965;23;20159;-87
2023/09/23 06:13:12;;;;;;;5.67;4.37;;;13.90;99.90;;;;;;6213636;23;20241;-85
2023/09/23 06:15:38;;;;;;;5.30;4.07;;;14.10;99.90;;;;;;6189044;23;20198;-88
2023/09/23 06:18:06;;;;;;;5.20;3.33;;;14.30;99.90;;;;;;6164441;23;20201;-88
2023/09/23 06:20:33;;;;;;;5.33;4.47;;;14.50;99.90;;;;;;6189199;23;20223;-87
2023/09/23 06:22:59;;;;;;;4.60;3.20;;;14.50;99.90;;;;;;6164481;23;20176;-87
2023/09/23 06:25:25;;;;;;;4.83;3.30;;;14.50;99.90;;;;;;6188899;23;20532;-87
2023/09/23 06:27:50;;;;;;;5.77;3.50;;;14.60;99.90;;;;;;6212860;23;20205;-87
2023/09/23 06:30:17;;;;;;;5.80;4.43;;;14.70;99.90;;;;;;6188310;23;20206;-87
2023/09/23 06:32:44;;;;;;;5.97;3.70;;;15.10;99.90;;;;;;6238969;23;20210;-87
2023/09/23 06:35:11;;;;;;;7.47;4.37;;;16.20;99.90;;;;;;6213924;23;20158;-87
2023/09/23 06:37:37;;;;;;;7.53;5.03;;;17.70;99.90;;;;;;6164315;23;20158;-87
2023/09/23 06:40:04;;;;;;;4.37;3.83;;;19.10;99.90;;;;;;6187854;23;20198;-87
2023/09/23 06:42:29;;;;;;;6.03;3.63;;;20.30;99.90;;;;;;6163103;23;20193;-87
2023/09/23 06:44:56;;;;;;;3.27;1.77;;;21.60;99.90;;;;;;6163585;23;20196;-87
2023/09/23 06:47:21;;;;;;;4.53;2.57;;;22.20;99.90;;;;;;6187848;23;20197;-87
2023/09/23 06:49:47;;;;;;;1.97;1.50;;;22.80;99.90;;;;;;6164404;23;20172;-87
2023/09/23 06:52:13;;;;;;;2.77;2.17;;;22.10;99.90;;;;;;6186936;23;20812;-85
2023/09/23 06:54:39;;;;;;;1.67;1.57;;;21.70;99.90;;;;;;6187841;23;20205;-88
2023/09/23 06:57:04;;;;;;;1.50;1.40;;;21.80;99.90;;;;;;6214529;23;20213;-88
2023/09/23 06:59:30;;;;;;;1.40;1.30;;;22.10;99.90;;;;;;6158505;23;20205;-87
2023/09/23 07:01:56;;;;;;;1.33;1.23;;;22.50;99.90;;;;;;6184080;23;20174;-86
2023/09/23 07:04:22;;;;;;;0.80;0.80;;;22.20;99.90;;;;;;6162092;23;20198;-87
2023/09/23 07:06:48;;;;;;;2.00;1.40;;;22.30;99.90;;;;;;6188591;23;20206;-87
2023/09/23 07:09:14;;;;;;;0.70;0.57;;;22.60;99.90;;;;;;6162924;23;20345;-87
2023/09/23 07:11:40;;;;;;;0.70;0.70;;;24.00;99.90;;;;;;6161762;23;20275;-87
2023/09/23 07:14:06;;;;;;;0.80;0.50;;;25.70;99.90;;;;;;6163066;23;20161;-86
2023/09/23 07:16:33;;;;;;;2.80;0.80;;;25.20;99.90;;;;;;6163950;23;20165;-87
2023/09/23 07:19:00;;;;;;;0.50;0.50;;;23.80;99.90;;;;;;6188457;23;20567;-87
2023/09/23 07:21:26;;;;;;;1.13;0.93;;;22.10;99.90;;;;;;6214247;23;20202;-88
2023/09/23 07:23:52;;;;;;;6.23;0.70;;;21.20;99.90;;;;;;6214094;23;20646;-86
2023/09/23 07:26:21;;;;;;;3.57;0.73;;;20.50;99.90;;;;;;6187591;23;20224;-87
2023/09/23 07:28:50;;;;;;;1.00;1.00;;;20.40;99.90;;;;;;6164645;23;20170;-86
2023/09/23 07:31:17;;;;;;;2.17;0.60;;;21.10;99.90;;;;;;6188454;23;20190;-87
2023/09/23 07:33:43;;;;;;;0.57;0.57;;;22.00;99.90;;;;;;6188186;23;20194;-87
2023/09/23 07:36:12;;;;;;;0.97;0.60;;;24.00;99.90;;;;;;6163587;23;20205;-86
2023/09/23 07:38:39;;;;;;;0.97;0.70;;;24.50;99.90;;;;;;6163733;23;20190;-87
2023/09/23 07:41:05;;;;;;;0.80;0.60;;;23.90;99.90;;;;;;6187836;23;20181;-88
2023/09/23 07:43:32;;;;;;;0.70;0.70;;;25.00;99.90;;;;;;6163890;23;20162;-87
2023/09/23 07:45:58;;;;;;;0.93;0.70;;;25.20;99.90;;;;;;6164361;23;20564;-87
2023/09/23 07:48:23;;;;;;;0.50;0.50;;;25.00;99.90;;;;;;6213243;23;20208;-87
2023/09/23 07:50:49;;;;;;;2.75;0.90;;;25.30;99.90;;;;;;6163571;23;20232;-87
2023/09/23 07:53:15;;;;;;;1.55;0.60;;;26.10;99.90;;;;;;6212463;23;20186;-89
2023/09/23 07:55:41;;;;;;;0.40;0.40;;;26.70;99.90;;;;;;6163010;23;20163;-86
2023/09/23 07:58:07;;;;;;;1.83;0.90;;;26.40;99.90;;;;;;6184082;23;20248;-85
2023/09/23 08:00:33;;;;;;;1.27;0.80;;;26.70;99.90;;;;;;6182416;23;20202;-86
2023/09/23 08:02:58;;;;;;;1.25;0.80;;;25.10;99.90;;;;;;6157834;23;20190;-86
2023/09/23 08:05:25;;;;;;;1.25;1.08;;;24.90;99.90;;;;;;6163186;23;20193;-87
2023/09/23 08:07:51;;;;;;;1.48;0.90;;;25.30;99.90;;;;;;6163615;23;20158;-85
2023/09/23 08:10:17;;;;;;;1.45;0.90;;;25.20;99.90;;;;;;6188306;23;20256;-87
2023/09/23 08:12:44;;;;;;;0.68;0.68;;;26.40;99.90;;;;;;6212878;23;20597;-87
2023/09/23 08:15:11;;;;;;;3.25;0.77;;;27.20;99.90;;;;;;6188020;23;20216;-89
2023/09/23 08:17:39;;;;;;;1.83;1.08;;;27.00;99.90;;;;;;6188861;23;20225;-86
2023/09/23 08:20:18;;;;;;;1.25;0.90;;;26.50;99.90;;;;;;6188306;23;20162;-87
2023/09/23 08:22:48;;;;;;;4.47;0.90;;;27.30;99.90;;;;;;6213460;23;20142;-87
2023/09/23 08:25:17;;;;;;;1.40;0.63;;;28.70;99.90;;;;;;6212652;23;20201;-86
2023/09/23 08:27:44;;;;;;;1.27;0.80;;;28.80;99.90;;;;;;6188419;23;20220;-85
2023/09/23 08:30:10;;;;;;;2.83;0.93;;;28.80;99.90;;;;;;6238221;23;20196;-85
2023/09/23 08:32:37;;;;;;;1.52;0.85;;;28.80;99.90;;;;;;6213435;23;20706;-86
2023/09/23 08:35:05;;;;;;;2.20;0.82;;;29.50;99.90;;;;;;6163526;23;20170;-86
2023/09/23 08:37:31;;;;;;;1.65;0.55;;;29.20;99.90;;;;;;6187511;23;20249;-86
2023/09/23 08:39:57;;;;;;;2.15;0.63;;;27.50;99.90;;;;;;6213796;23;20255;-87
2023/09/23 08:42:27;;;;;;;3.35;0.98;;;27.50;99.90;;;;;;6162468;23;20201;-87
2023/09/23 08:44:54;;;;;;;1.65;0.43;;;27.30;99.90;;;;;;6163454;23;20931;-87
2023/09/23 08:47:20;;;;;;;1.30;0.73;;;26.70;99.90;;;;;;6187924;23;20197;-87
2023/09/23 08:49:47;;;;;;;0.65;0.65;;;25.40;99.90;;;;;;6163443;23;20158;-86
2023/09/23 08:52:18;;;;;;;0.63;0.63;;;24.50;99.90;;;;;;6212079;23;20205;-87
2023/09/23 08:54:49;;;;;;;0.80;0.73;;;23.70;99.90;;;;;;6213691;23;20224;-87
2023/09/23 08:57:20;;;;;;;0.80;0.60;;;23.00;99.90;;;;;;6211320;23;20198;-86
2023/09/23 08:59:46;;;;;;;1.80;1.20;;;22.00;99.90;;;;;;6159555;23;20264;-90
2023/09/23 09:02:22;;;;;;;0.77;0.57;;;21.20;99.90;;;;;;6184300;23;20162;-91
2023/09/23 09:04:51;;;;;;;0.88;0.80;;;20.60;99.90;;;;;;6213412;23;20145;-89
2023/09/23 09:07:17;;;;;;;0.70;0.70;;;20.00;99.90;;;;;;6188244;23;20666;-89
2023/09/23 09:09:42;;;;;;;1.13;0.90;;;19.40;99.90;;;;;;6163130;23;20198;-89
2023/09/23 09:12:09;;;;;;;1.23;0.95;;;18.90;99.90;;;;;;6164007;23;20525;-90
2023/09/23 09:14:35;;;;;;;0.30;0.30;;;18.60;99.90;;;;;;6178606;23;20186;-89
2023/09/23 09:17:01;;;;;;;0.60;0.47;;;18.80;99.90;;;;;;6190191;23;20272;-88
2023/09/23 09:19:27;;;;;;;1.60;0.80;;;19.00;99.90;;;;;;6190406;23;20162;-89
2023/09/23 09:21:54;;;;;;;0.60;0.60;;;19.60;99.90;;;;;;6214322;23;20198;-89
2023/09/23 09:24:22;;;;;;;0.60;0.60;;;19.80;99.90;;;;;;6214086;23;20221;-89
2023/09/23 09:26:48;;;;;;;0.80;0.80;;;19.90;99.90;;;;;;6166013;23;20193;-89
2023/09/23 09:29:16;;;;;;;1.67;0.73;;;20.20;99.90;;;;;;6189188;23;20170;-89
2023/09/23 09:31:44;;;;;;;0.80;0.60;;;20.50;99.90;;;;;;6190573;23;20186;-89
2023/09/23 09:34:11;;;;;;;0.77;0.77;;;21.20;99.90;;;;;;6215906;23;20194;-88
2023/09/23 09:36:40;;;;;;;1.33;0.93;;;21.30;99.90;;;;;;6165038;23;20391;-88
2023/09/23 09:39:10;;;;;;;0.57;0.50;;;21.90;99.90;;;;;;6213549;23;20520;-88
2023/09/23 09:41:46;;;;;;;1.13;0.88;;;22.60;99.90;;;;;;6214031;23;20232;-90
2023/09/23 09:44:16;;;;;;;0.83;0.50;;;23.30;99.90;;;;;;6189060;23;20162;-89
2023/09/23 09:46:43;;;;;;;0.70;0.70;;;24.10;99.90;;;;;;6190223;23;20158;-86
2023/09/23 09:49:10;;;;;;;2.47;0.77;;;25.10;99.90;;;;;;6213733;23;20220;-86
2023/09/23 09:51:39;;;;;;;0.60;0.60;;;25.10;99.90;;;;;;6188499;23;20694;-86
2023/09/23 09:54:05;;;;;;;1.40;1.23;;;25.10;99.90;;;;;;6189162;23;20197;-86
2023/09/23 09:56:33;;;;;;;1.10;0.73;;;24.90;99.90;;;;;;6163396;23;20243;-85
2023/09/23 09:59:01;;;;;;;0.45;0.45;;;25.10;99.90;;;;;;6184626;23;20197;-86
2023/09/23 10:01:29;;;;;;;0.70;0.70;;;25.30;99.90;;;;;;6185174;23;20208;-84
2023/09/23 10:03:54;;;;;;;0.55;0.55;;;25.30;99.90;;;;;;6211900;23;20194;-86
2023/09/23 10:06:26;;;;;;;0.75;0.75;;;25.10;99.90;;;;;;6163706;23;20247;-85
2023/09/23 10:08:53;;;;;;;0.60;0.60;;;24.60;99.90;;;;;;6189096;23;20190;-87
2023/09/23 10:11:33;;;;;;;0.70;0.70;;;25.40;99.90;;;;;;6189200;23;20190;-86
2023/09/23 10:13:59;;;;;;;0.73;0.68;;;25.50;99.90;;;;;;6213540;23;20158;-87
2023/09/23 10:16:27;;;;;;;0.57;0.57;;;24.60;99.90;;;;;;6214813;23;20162;-86
2023/09/23 10:18:59;;;;;;;0.65;0.65;;;24.00;99.90;;;;;;6188565;23;20194;-86
2023/09/23 10:21:29;;;;;;;0.65;0.65;;;22.60;99.90;;;;;;6213896;23;20196;-86
2023/09/23 10:23:57;;;;;;;1.08;0.70;;;21.60;99.90;;;;;;6212688;23;20240;-87
2023/09/23 10:26:28;;;;;;;2.65;0.70;;;20.30;99.90;;;;;;6213083;23;20192;-88
2023/09/23 10:28:59;;;;;;;0.77;0.77;;;19.50;99.90;;;;;;6213748;23;20146;-86
2023/09/23 10:31:29;;;;;;;0.68;0.60;;;19.10;99.90;;;;;;6213866;23;20186;-86
2023/09/23 10:33:55;;;;;;;0.63;0.63;;;18.70;99.90;;;;;;6213347;23;20197;-85
2023/09/23 10:36:26;;;;;;;0.80;0.80;;;18.20;99.90;;;;;;6187915;23;20263;-87
2023/09/23 10:38:51;;;;;;;0.60;0.60;;;18.10;99.90;;;;;;6165864;23;20213;-88
2023/09/23 10:41:18;;;;;;;0.53;0.53;;;18.00;99.90;;;;;;6164615;23;20197;-92
2023/09/23 10:43:51;;;;;;;0.60;0.60;;;18.00;99.90;;;;;;6190389;23;20292;-87
2023/09/23 10:46:17;;;;;;;0.50;0.50;;;18.10;99.90;;;;;;6191946;23;20650;-88
2023/09/23 10:48:42;;;;;;;2.33;0.60;;;18.60;99.90;;;;;;6165423;23;20250;-89
2023/09/23 10:51:12;;;;;;;0.43;0.43;;;18.80;99.90;;;;;;6165289;23;20827;-88
2023/09/23 10:53:37;;;;;;;0.57;0.57;;;19.00;99.90;;;;;;6165511;23;20202;-88
2023/09/23 10:56:03;;;;;;;0.50;0.50;;;19.00;99.90;;;;;;6164232;23;20190;-87
2023/09/23 10:58:33;;;;;;;5.30;1.37;;;19.00;99.90;;;;;;6161158;23;20209;-88
2023/09/23 11:01:00;;;;;;;2.40;0.67;;;19.20;99.90;;;;;;6185926;23;20537;-88
2023/09/23 11:03:27;;;;;;;0.93;0.83;;;19.80;99.90;;;;;;6161297;23;20230;-89
2023/09/23 11:05:54;;;;;;;0.70;0.70;;;20.40;99.90;;;;;;6165870;23;20194;-88
2023/09/23 11:08:20;;;;;;;0.70;0.60;;;20.30;99.90;;;;;;6189625;23;20202;-87
2023/09/23 11:10:49;;;;;;;1.33;0.63;;;20.20;99.90;;;;;;6214657;23;20161;-88
2023/09/23 11:13:15;;;;;;;1.93;1.03;;;20.50;99.90;;;;;;6212992;23;20730;-88
2023/09/23 11:15:44;;;;;;;0.80;0.80;;;21.10;99.90;;;;;;6188980;23;20198;-89
2023/09/23 11:18:17;;;;;;;1.20;0.70;;;21.20;99.90;;;;;;6213698;23;20192;-88
2023/09/23 11:20:47;;;;;;;0.83;0.80;;;21.90;99.90;;;;;;6214635;23;20251;-88
2023/09/23 11:23:13;;;;;;;1.00;0.90;;;21.70;99.90;;;;;;6211891;23;20269;-88
2023/09/23 11:25:45;;;;;;;6.10;1.98;;;22.00;99.90;;;;;;6184837;23;20162;-89
2023/09/23 11:28:24;;;;;;;1.30;1.20;;;22.40;99.90;;;;;;6208058;23;20276;-87
2023/09/23 11:30:51;;;;;;;1.85;0.85;;;22.20;99.90;;;;;;6184522;23;20247;-90
2023/09/23 11:33:18;;;;;;;1.75;1.17;;;22.00;99.90;;;;;;6183898;23;20220;-88
2023/09/23 11:35:45;;;;;;;2.22;1.10;;;22.10;99.90;;;;;;6210362;23;20197;-87
2023/09/23 11:38:18;;;;;;;1.08;0.93;;;21.50;99.90;;;;;;6184840;23;20166;-88
2023/09/23 11:40:46;;;;;;;1.38;1.02;;;21.40;99.90;;;;;;6185597;23;20157;-88
2023/09/23 11:43:12;;;;;;;1.83;1.40;;;21.20;99.90;;;;;;6183337;23;20198;-88
2023/09/23 11:45:39;;;;;;;1.92;0.82;;;20.90;99.90;;;;;;6209595;23;20197;-88
2023/09/23 11:48:07;;;;;;;1.02;0.75;;;21.10;99.90;;;;;;6209520;23;20194;-88
2023/09/23 11:50:33;;;;;;;0.65;0.65;;;20.80;99.90;;;;;;6184841;23;20818;-87
2023/09/23 11:52:59;;;;;;;2.20;0.75;;;20.70;99.90;;;;;;6158866;23;20185;-86
2023/09/23 11:55:26;;;;;;;3.60;0.93;;;20.80;99.90;;;;;;6233923;23;20208;-87
2023/09/23 11:57:57;;;;;;;0.60;0.60;;;21.10;99.90;;;;;;6159795;23;20512;-88
2023/09/23 12:00:23;;;;;;;1.90;1.07;;;20.90;99.90;;;;;;6160716;23;20205;-87
2023/09/23 12:02:49;;;;;;;1.10;1.00;;;20.50;99.90;;;;;;6183402;23;20194;-87
2023/09/23 12:05:19;;;;;;;1.48;1.10;;;20.10;99.90;;;;;;6157674;23;20249;-88
2023/09/23 12:07:45;;;;;;;0.80;0.80;;;20.00;99.90;;;;;;6185136;23;20154;-88
2023/09/23 12:10:15;;;;;;;0.77;0.77;;;20.00;99.90;;;;;;6209184;23;20528;-89
2023/09/23 12:12:42;;;;;;;2.07;0.73;;;19.40;99.90;;;;;;6186954;23;20659;-89
2023/09/23 12:15:09;;;;;;;1.80;0.90;;;19.10;99.90;;;;;;6189010;23;20201;-89
2023/09/23 12:17:35;;;;;;;2.97;0.73;;;19.30;99.90;;;;;;6239052;23;20205;-88
2023/09/23 12:20:02;;;;;;;0.70;0.70;;;19.30;99.90;;;;;;6165417;23;20164;-87
2023/09/23 12:22:28;;;;;;;1.13;1.03;;;19.50;99.90;;;;;;6164642;23;20657;-89
2023/09/23 12:24:53;;;;;;;1.63;1.10;;;19.70;99.90;;;;;;6188798;23;20201;-89
2023/09/23 12:27:21;;;;;;;3.57;0.90;;;20.10;99.90;;;;;;6164009;23;20221;-89
2023/09/23 12:29:47;;;;;;;1.13;0.80;;;20.20;99.90;;;;;;6165582;23;20254;-89
2023/09/23 12:32:13;;;;;;;1.07;0.70;;;19.90;99.90;;;;;;6188724;23;20190;-86
2023/09/23 12:34:39;;;;;;;3.23;0.80;;;19.80;99.90;;;;;;6165565;23;20163;-88
2023/09/23 12:37:04;;;;;;;1.23;0.70;;;19.60;99.90;;;;;;6163425;23;20212;-90
2023/09/23 12:39:30;;;;;;;1.07;1.07;;;18.80;99.90;;;;;;6187098;23;20221;-86
2023/09/23 12:41:56;;;;;;;1.23;0.50;;;18.40;99.90;;;;;;6187894;23;20197;-87
2023/09/23 12:44:23;;;;;;;0.57;0.57;;;18.20;99.90;;;;;;6187960;23;20194;-87
2023/09/23 12:46:48;;;;;;;0.50;0.50;;;18.40;99.90;;;;;;6214198;23;20165;-87
2023/09/23 12:49:14;;;;;;;3.03;0.90;;;18.50;99.90;;;;;;6162846;23;20200;-86